Time;durP1;ratioP1;P1;durP2;ratioP2;P2;SDS_P1;SDS_P2;PMS_P1;PMS_P2;Temp;Humidity;BMP_temperature;BMP_pressure;BME280_temperature;BME280_humidity;BME280_pressure;Samples;Min_cycle;Max_cycle;Signal;HPM_P1;HPM_P2
2022/03/12 00:02:21;;;;;;;11.57;6.15;;;;;;;;;;4972748;28;20050;-89
2022/03/12 00:04:47;;;;;;;10.65;6.32;;;;;;;;;;4973684;28;20054;-89
2022/03/12 00:07:15;;;;;;;11.75;5.68;;;;;;;;;;4974195;28;20040;-89
2022/03/12 00:09:43;;;;;;;10.82;6.35;;;;;;;;;;4974027;28;20051;-88
2022/03/12 00:12:13;;;;;;;10.85;6.65;;;;;;;;;;4972978;28;20119;-88
2022/03/12 00:14:41;;;;;;;11.18;6.90;;;;;;;;;;4973788;28;20051;-88
2022/03/12 00:17:07;;;;;;;10.82;6.57;;;;;;;;;;4956432;28;20051;-88
2022/03/12 00:19:33;;;;;;;13.30;6.85;;;;;;;;;;4972483;28;20122;-88
2022/03/12 00:22:03;;;;;;;11.98;5.93;;;;;;;;;;4972670;28;20049;-88
2022/03/12 00:24:29;;;;;;;10.30;6.38;;;;;;;;;;4972515;28;20053;-88
2022/03/12 00:27:00;;;;;;;10.63;6.20;;;;;;;;;;4972471;28;20070;-88
2022/03/12 00:29:26;;;;;;;12.98;6.20;;;;;;;;;;4972276;28;20062;-89
2022/03/12 00:31:53;;;;;;;13.20;6.38;;;;;;;;;;4972416;28;20075;-88
2022/03/12 00:34:19;;;;;;;11.30;6.00;;;;;;;;;;4972639;28;20051;-89
2022/03/12 00:36:45;;;;;;;12.45;6.55;;;;;;;;;;4972469;28;20049;-89
2022/03/12 00:39:12;;;;;;;12.90;6.97;;;;;;;;;;4972762;28;20046;-87
2022/03/12 00:41:38;;;;;;;12.57;6.13;;;;;;;;;;4972296;28;20109;-88
2022/03/12 00:44:05;;;;;;;10.50;6.18;;;;;;;;;;4973586;28;20051;-88
2022/03/12 00:46:31;;;;;;;11.73;6.88;;;;;;;;;;4973665;28;20043;-88
2022/03/12 00:48:57;;;;;;;14.85;6.53;;;;;;;;;;4973875;28;20050;-88
2022/03/12 00:51:23;;;;;;;15.60;6.90;;;;;;;;;;4973558;28;20402;-89
2022/03/12 00:53:49;;;;;;;11.05;6.70;;;;;;;;;;4972669;28;20059;-89
2022/03/12 00:56:15;;;;;;;14.50;6.72;;;;;;;;;;4972335;28;20046;-88
2022/03/12 00:58:45;;;;;;;14.77;7.63;;;;;;;;;;4972295;28;20626;-89
2022/03/12 01:01:12;;;;;;;13.15;6.97;;;;;;;;;;4972113;28;20054;-88
2022/03/12 01:03:38;;;;;;;14.02;6.50;;;;;;;;;;4972195;28;20057;-88
2022/03/12 01:06:05;;;;;;;12.95;7.00;;;;;;;;;;4972047;28;20042;-88
2022/03/12 01:08:32;;;;;;;12.07;6.75;;;;;;;;;;4973461;28;20467;-88
2022/03/12 01:11:04;;;;;;;13.88;7.00;;;;;;;;;;4974299;28;20074;-88
2022/03/12 01:13:30;;;;;;;11.23;7.00;;;;;;;;;;4976803;28;20439;-88
2022/03/12 01:15:56;;;;;;;11.27;6.95;;;;;;;;;;4975254;28;20538;-88
2022/03/12 01:18:23;;;;;;;10.93;6.82;;;;;;;;;;4975827;28;20065;-88
2022/03/12 01:20:50;;;;;;;11.60;6.50;;;;;;;;;;4975266;28;20046;-87
2022/03/12 01:23:17;;;;;;;14.48;6.97;;;;;;;;;;4975605;28;20043;-87
2022/03/12 01:25:44;;;;;;;12.23;7.40;;;;;;;;;;4976359;28;20043;-88
2022/03/12 01:28:10;;;;;;;14.93;7.20;;;;;;;;;;4975458;28;20086;-88
2022/03/12 01:30:36;;;;;;;12.73;7.03;;;;;;;;;;4976683;28;20047;-88
2022/03/12 01:33:03;;;;;;;13.18;6.97;;;;;;;;;;4976589;28;20043;-87
2022/03/12 01:35:29;;;;;;;12.15;6.93;;;;;;;;;;4974909;28;20046;-88
2022/03/12 01:37:55;;;;;;;10.38;6.75;;;;;;;;;;4975253;28;20074;-87
2022/03/12 01:40:21;;;;;;;15.55;7.45;;;;;;;;;;4975075;28;20057;-88
2022/03/12 01:42:48;;;;;;;12.85;7.45;;;;;;;;;;4976505;28;20035;-89
2022/03/12 01:45:23;;;;;;;11.88;6.60;;;;;;;;;;4975338;28;20047;-89
2022/03/12 01:47:49;;;;;;;11.38;6.53;;;;;;;;;;4975192;28;20069;-88
2022/03/12 01:50:19;;;;;;;13.00;7.05;;;;;;;;;;4975132;28;20054;-89
2022/03/12 01:52:45;;;;;;;12.10;6.88;;;;;;;;;;4976184;28;20063;-88
2022/03/12 01:55:11;;;;;;;13.55;7.22;;;;;;;;;;4974825;28;20148;-88
2022/03/12 01:57:37;;;;;;;11.15;6.40;;;;;;;;;;4974638;28;20057;-89
2022/03/12 02:00:04;;;;;;;14.40;6.38;;;;;;;;;;4974878;28;20066;-89
2022/03/12 02:02:30;;;;;;;12.45;6.85;;;;;;;;;;4975924;28;20041;-88
2022/03/12 02:04:56;;;;;;;11.88;6.57;;;;;;;;;;4974668;28;20125;-88
2022/03/12 02:07:22;;;;;;;11.18;6.32;;;;;;;;;;4974647;28;20045;-88
2022/03/12 02:09:49;;;;;;;10.77;6.68;;;;;;;;;;4974762;28;20050;-87
2022/03/12 02:12:15;;;;;;;13.60;6.97;;;;;;;;;;4974381;28;20038;-88
2022/03/12 02:14:41;;;;;;;13.50;8.00;;;;;;;;;;4974880;28;20046;-89
2022/03/12 02:17:11;;;;;;;12.27;7.38;;;;;;;;;;4975391;28;20042;-88
2022/03/12 02:19:39;;;;;;;13.77;6.57;;;;;;;;;;4975909;28;20038;-88
2022/03/12 02:22:06;;;;;;;13.55;7.15;;;;;;;;;;4974122;28;20226;-88
2022/03/12 02:24:34;;;;;;;13.77;7.47;;;;;;;;;;4975492;28;20336;-88
2022/03/12 02:27:01;;;;;;;14.20;7.18;;;;;;;;;;4974213;28;20051;-87
2022/03/12 02:29:27;;;;;;;14.13;6.63;;;;;;;;;;4974177;28;20394;-89
2022/03/12 02:31:57;;;;;;;13.02;7.38;;;;;;;;;;4975262;28;20054;-87
2022/03/12 02:34:26;;;;;;;11.65;6.53;;;;;;;;;;4974166;28;20102;-88
2022/03/12 02:36:53;;;;;;;11.65;6.35;;;;;;;;;;4973851;28;20058;-87
2022/03/12 02:39:21;;;;;;;11.10;6.90;;;;;;;;;;4974237;28;20055;-89
2022/03/12 02:41:48;;;;;;;11.38;6.97;;;;;;;;;;4974934;28;20497;-89
2022/03/12 02:44:18;;;;;;;12.25;7.07;;;;;;;;;;4974071;28;20043;-89
2022/03/12 02:47:05;;;;;;;12.98;6.65;;;;;;;;;;4975074;28;20442;-88
2022/03/12 02:49:31;;;;;;;12.80;6.93;;;;;;;;;;4975034;28;20049;-88
2022/03/12 02:51:57;;;;;;;13.32;7.28;;;;;;;;;;4973634;28;20053;-88
2022/03/12 02:54:23;;;;;;;12.38;6.90;;;;;;;;;;4974962;28;20465;-89
2022/03/12 02:56:49;;;;;;;12.65;6.47;;;;;;;;;;4974817;28;20050;-88
2022/03/12 02:59:15;;;;;;;12.63;6.45;;;;;;;;;;4973658;28;20089;-90
2022/03/12 03:01:42;;;;;;;10.82;6.93;;;;;;;;;;4973448;28;20086;-88
2022/03/12 03:04:08;;;;;;;11.73;6.82;;;;;;;;;;4973578;28;20055;-89
2022/03/12 03:06:34;;;;;;;12.02;6.95;;;;;;;;;;4973569;28;20038;-89
2022/03/12 03:09:00;;;;;;;13.73;6.60;;;;;;;;;;4973480;28;20047;-88
2022/03/12 03:11:29;;;;;;;10.75;6.43;;;;;;;;;;4974458;28;20043;-88
2022/03/12 03:13:55;;;;;;;10.75;6.57;;;;;;;;;;4974758;28;20047;-88
2022/03/12 03:16:21;;;;;;;13.80;7.28;;;;;;;;;;4973132;28;20054;-89
2022/03/12 03:18:51;;;;;;;12.63;7.10;;;;;;;;;;4974625;28;20074;-89
2022/03/12 03:21:18;;;;;;;13.20;6.82;;;;;;;;;;4973613;28;20034;-88
2022/03/12 03:23:47;;;;;;;11.05;6.90;;;;;;;;;;4974591;28;20049;-89
2022/03/12 03:26:14;;;;;;;11.48;6.45;;;;;;;;;;4974655;28;20042;-88
2022/03/12 03:28:41;;;;;;;11.93;6.95;;;;;;;;;;4956879;28;20050;-88
2022/03/12 03:31:07;;;;;;;14.13;7.00;;;;;;;;;;4973510;28;20042;-89
2022/03/12 03:33:33;;;;;;;11.27;6.28;;;;;;;;;;4972584;28;20047;-87
2022/03/12 03:35:59;;;;;;;11.00;6.70;;;;;;;;;;4974236;28;20495;-88
2022/03/12 03:38:25;;;;;;;14.27;7.10;;;;;;;;;;4974242;28;20090;-89
2022/03/12 03:40:51;;;;;;;10.30;6.65;;;;;;;;;;4973037;28;20053;-88
2022/03/12 03:43:22;;;;;;;11.20;6.45;;;;;;;;;;4974088;28;20117;-88
2022/03/12 03:45:48;;;;;;;11.93;6.43;;;;;;;;;;4972787;28;20058;-89
2022/03/12 03:48:16;;;;;;;13.45;6.75;;;;;;;;;;4974162;28;20039;-88
2022/03/12 03:50:42;;;;;;;13.38;6.10;;;;;;;;;;4973169;28;20046;-88
2022/03/12 03:53:10;;;;;;;13.63;6.30;;;;;;;;;;4973063;28;20054;-89
2022/03/12 03:55:36;;;;;;;12.73;6.90;;;;;;;;;;4972813;28;20133;-88
2022/03/12 03:58:03;;;;;;;12.25;6.90;;;;;;;;;;4972718;28;20121;-89
2022/03/12 04:00:31;;;;;;;11.35;6.45;;;;;;;;;;4973138;28;20047;-89
2022/03/12 04:03:02;;;;;;;12.25;7.18;;;;;;;;;;4972989;28;20051;-87
2022/03/12 04:05:29;;;;;;;13.05;6.32;;;;;;;;;;4974141;28;20126;-89
2022/03/12 04:07:55;;;;;;;11.18;7.00;;;;;;;;;;4972538;28;20043;-89
2022/03/12 04:10:20;;;;;;;11.18;6.78;;;;;;;;;;4972647;28;20047;-89
2022/03/12 04:12:46;;;;;;;11.55;6.63;;;;;;;;;;4973689;28;20053;-88
2022/03/12 04:15:13;;;;;;;13.48;6.47;;;;;;;;;;4974081;28;20053;-90
2022/03/12 04:17:41;;;;;;;11.15;6.82;;;;;;;;;;4973711;28;20125;-89
2022/03/12 04:20:08;;;;;;;16.13;6.82;;;;;;;;;;4974124;28;20043;-89
2022/03/12 04:22:38;;;;;;;12.77;6.80;;;;;;;;;;4972462;28;20509;-88
2022/03/12 04:25:05;;;;;;;12.02;6.47;;;;;;;;;;4972666;28;20050;-88
2022/03/12 04:27:31;;;;;;;13.93;6.80;;;;;;;;;;4972246;28;20434;-88
2022/03/12 04:29:57;;;;;;;11.82;6.50;;;;;;;;;;4957378;28;20117;-92
2022/03/12 04:32:23;;;;;;;11.13;7.03;;;;;;;;;;4975502;28;20096;-89
2022/03/12 04:34:49;;;;;;;12.75;6.95;;;;;;;;;;4972814;28;20055;-89
2022/03/12 04:37:15;;;;;;;9.95;6.60;;;;;;;;;;4972214;28;20047;-88
2022/03/12 04:39:41;;;;;;;10.95;6.40;;;;;;;;;;4972658;28;20053;-87
2022/03/12 04:42:07;;;;;;;12.20;6.60;;;;;;;;;;4973470;28;20514;-89
2022/03/12 04:44:33;;;;;;;10.70;7.05;;;;;;;;;;4974130;28;20058;-88
2022/03/12 04:46:59;;;;;;;12.25;6.97;;;;;;;;;;4976070;28;20047;-88
2022/03/12 04:49:25;;;;;;;12.43;6.70;;;;;;;;;;4977202;28;20041;-88
2022/03/12 04:51:51;;;;;;;12.25;6.50;;;;;;;;;;4977394;28;20051;-88
2022/03/12 04:54:18;;;;;;;11.63;6.57;;;;;;;;;;4977012;28;20082;-89
2022/03/12 04:56:44;;;;;;;11.43;6.22;;;;;;;;;;4976126;28;20051;-88
2022/03/12 04:59:12;;;;;;;11.20;6.13;;;;;;;;;;4977058;28;20061;-88
2022/03/12 05:01:38;;;;;;;11.65;6.85;;;;;;;;;;4976058;28;20046;-88
2022/03/12 05:04:04;;;;;;;11.88;6.45;;;;;;;;;;4976784;28;20042;-87
2022/03/12 05:06:30;;;;;;;11.60;7.03;;;;;;;;;;4975692;28;20478;-88
2022/03/12 05:08:56;;;;;;;11.82;6.25;;;;;;;;;;4975473;28;20043;-88
2022/03/12 05:11:22;;;;;;;10.57;7.05;;;;;;;;;;4975752;28;20038;-87
2022/03/12 05:13:53;;;;;;;11.88;6.60;;;;;;;;;;4975490;28;20054;-87
2022/03/12 05:16:20;;;;;;;10.93;7.13;;;;;;;;;;4975803;28;20039;-89
2022/03/12 05:18:46;;;;;;;10.68;6.78;;;;;;;;;;4959278;28;20085;-88
2022/03/12 05:21:12;;;;;;;11.48;6.43;;;;;;;;;;4976679;28;20046;-88
2022/03/12 05:23:38;;;;;;;12.38;6.55;;;;;;;;;;4975456;28;20078;-88
2022/03/12 05:26:05;;;;;;;11.73;6.50;;;;;;;;;;4976556;28;20079;-87
2022/03/12 05:28:32;;;;;;;12.15;7.43;;;;;;;;;;4975033;28;20054;-88
2022/03/12 05:31:00;;;;;;;14.93;6.40;;;;;;;;;;4975663;28;20073;-88
2022/03/12 05:33:27;;;;;;;12.18;6.22;;;;;;;;;;4975167;28;20051;-88
2022/03/12 05:35:54;;;;;;;12.18;6.57;;;;;;;;;;4975110;28;20093;-88
2022/03/12 05:38:21;;;;;;;12.52;6.55;;;;;;;;;;4975216;28;20065;-88
2022/03/12 05:40:48;;;;;;;14.15;6.53;;;;;;;;;;4975593;28;20039;-88
2022/03/12 05:43:17;;;;;;;12.88;6.65;;;;;;;;;;4975207;28;20038;-87
2022/03/12 05:45:45;;;;;;;10.98;6.43;;;;;;;;;;4976278;28;20053;-89
2022/03/12 05:48:12;;;;;;;10.05;5.82;;;;;;;;;;4974763;28;20053;-88
2022/03/12 05:50:38;;;;;;;12.45;6.50;;;;;;;;;;4976319;28;20053;-88
2022/03/12 05:53:09;;;;;;;12.73;6.93;;;;;;;;;;4974757;28;20074;-87
2022/03/12 05:55:39;;;;;;;13.07;7.40;;;;;;;;;;4974220;28;20089;-88
2022/03/12 05:58:06;;;;;;;11.75;6.72;;;;;;;;;;4976193;28;20113;-87
2022/03/12 06:00:35;;;;;;;10.63;6.95;;;;;;;;;;4959168;28;20444;-89
2022/03/12 06:03:01;;;;;;;11.43;6.47;;;;;;;;;;4976037;28;20050;-88
2022/03/12 06:05:28;;;;;;;13.50;6.47;;;;;;;;;;4974622;28;20043;-88
2022/03/12 06:07:54;;;;;;;12.52;7.32;;;;;;;;;;4974646;28;20043;-89
2022/03/12 06:10:23;;;;;;;13.98;7.05;;;;;;;;;;4975944;28;20059;-88
2022/03/12 06:12:51;;;;;;;12.63;7.40;;;;;;;;;;4958414;28;20050;-88
2022/03/12 06:15:18;;;;;;;11.27;7.10;;;;;;;;;;4958325;28;20074;-88
2022/03/12 06:17:49;;;;;;;10.30;6.63;;;;;;;;;;4974694;28;20482;-89
2022/03/12 06:20:16;;;;;;;12.05;6.95;;;;;;;;;;4974373;28;20498;-87
2022/03/12 06:22:42;;;;;;;11.98;7.03;;;;;;;;;;4974705;28;20113;-89
2022/03/12 06:25:09;;;;;;;12.40;7.03;;;;;;;;;;4975453;28;20363;-88
2022/03/12 06:27:35;;;;;;;12.30;7.13;;;;;;;;;;4975713;28;20043;-88
2022/03/12 06:30:03;;;;;;;15.60;7.50;;;;;;;;;;4973867;28;20061;-87
2022/03/12 06:32:31;;;;;;;13.10;7.28;;;;;;;;;;4974492;28;20047;-88
2022/03/12 06:34:57;;;;;;;12.35;6.85;;;;;;;;;;4973946;28;20089;-88
2022/03/12 06:37:23;;;;;;;12.02;7.10;;;;;;;;;;4975591;28;20175;-89
2022/03/12 06:39:49;;;;;;;15.27;6.53;;;;;;;;;;4975945;28;20054;-89
2022/03/12 06:42:15;;;;;;;12.18;6.70;;;;;;;;;;4977145;28;20128;-88
2022/03/12 06:44:42;;;;;;;12.52;6.43;;;;;;;;;;4974917;28;20410;-88
2022/03/12 06:47:08;;;;;;;14.18;7.18;;;;;;;;;;4974158;28;20097;-88
2022/03/12 06:49:35;;;;;;;10.95;6.70;;;;;;;;;;4975148;28;20105;-88
2022/03/12 06:52:02;;;;;;;12.15;6.28;;;;;;;;;;4973826;28;20047;-87
2022/03/12 06:54:28;;;;;;;11.70;6.63;;;;;;;;;;4973867;28;20513;-88
2022/03/12 06:56:54;;;;;;;13.98;6.30;;;;;;;;;;4973734;28;20046;-89
2022/03/12 06:59:20;;;;;;;11.23;6.30;;;;;;;;;;4973567;28;20086;-89
2022/03/12 07:01:46;;;;;;;12.57;7.00;;;;;;;;;;4957820;28;20074;-88
2022/03/12 07:04:12;;;;;;;15.75;6.75;;;;;;;;;;4973371;28;20054;-88
2022/03/12 07:06:38;;;;;;;11.65;6.35;;;;;;;;;;4973365;28;20495;-88
2022/03/12 07:09:05;;;;;;;12.70;6.43;;;;;;;;;;4973014;28;20073;-87
2022/03/12 07:11:31;;;;;;;12.30;6.07;;;;;;;;;;4973644;28;20122;-88
2022/03/12 07:13:57;;;;;;;11.40;6.75;;;;;;;;;;4973277;28;20074;-89
2022/03/12 07:16:23;;;;;;;11.70;6.53;;;;;;;;;;4974825;28;20070;-89
2022/03/12 07:18:49;;;;;;;11.93;6.82;;;;;;;;;;4973520;28;20066;-90
2022/03/12 07:21:15;;;;;;;12.98;6.13;;;;;;;;;;4973787;28;20039;-90
2022/03/12 07:23:41;;;;;;;14.82;6.32;;;;;;;;;;4974554;28;20043;-88
2022/03/12 07:26:08;;;;;;;13.48;6.55;;;;;;;;;;4973069;28;20101;-89
2022/03/12 07:28:34;;;;;;;11.52;6.35;;;;;;;;;;4973556;28;20119;-90
2022/03/12 07:31:01;;;;;;;12.13;7.03;;;;;;;;;;4973398;28;20113;-89
2022/03/12 07:33:28;;;;;;;14.30;7.03;;;;;;;;;;4973234;28;20513;-89
2022/03/12 07:35:54;;;;;;;13.23;5.80;;;;;;;;;;4969987;28;20047;-90
2022/03/12 07:38:20;;;;;;;15.50;6.35;;;;;;;;;;4973003;28;20038;-90
2022/03/12 07:40:46;;;;;;;13.68;6.47;;;;;;;;;;4972901;28;20062;-90
2022/03/12 07:43:12;;;;;;;12.93;6.53;;;;;;;;;;4964515;28;20081;-93
2022/03/12 07:45:38;;;;;;;11.07;6.13;;;;;;;;;;4971668;28;20097;-92
2022/03/12 07:48:05;;;;;;;10.18;5.80;;;;;;;;;;4965762;28;20097;-92
2022/03/12 07:50:31;;;;;;;14.05;6.68;;;;;;;;;;4959941;28;20047;-94
2022/03/12 07:52:57;;;;;;;11.50;6.47;;;;;;;;;;4963663;28;20043;-92
2022/03/12 07:55:24;;;;;;;14.10;6.70;;;;;;;;;;4973639;28;20098;-90
2022/03/12 07:57:50;;;;;;;11.10;6.07;;;;;;;;;;4972313;28;20054;-90
2022/03/12 08:00:16;;;;;;;10.07;6.30;;;;;;;;;;4967991;28;20043;-89
2022/03/12 08:02:43;;;;;;;11.73;6.10;;;;;;;;;;4953293;28;20078;-90
2022/03/12 08:05:09;;;;;;;16.45;6.53;;;;;;;;;;4952869;28;20551;-89
2022/03/12 08:07:37;;;;;;;14.07;6.50;;;;;;;;;;4953191;28;20546;-90
2022/03/12 08:10:03;;;;;;;10.68;6.22;;;;;;;;;;4954141;28;20082;-90
2022/03/12 08:12:31;;;;;;;11.48;6.32;;;;;;;;;;4954569;28;20047;-91
2022/03/12 08:14:58;;;;;;;13.45;6.72;;;;;;;;;;4959501;28;20047;-90
2022/03/12 08:17:24;;;;;;;12.77;6.95;;;;;;;;;;4970385;28;20363;-90
2022/03/12 08:19:50;;;;;;;11.60;6.50;;;;;;;;;;4974702;28;20039;-89
2022/03/12 08:22:17;;;;;;;16.17;7.28;;;;;;;;;;4972390;28;20046;-90
2022/03/12 08:24:43;;;;;;;12.98;6.55;;;;;;;;;;4965268;28;20042;-90
2022/03/12 08:27:09;;;;;;;13.85;6.75;;;;;;;;;;4968092;28;20043;-90
2022/03/12 08:29:35;;;;;;;12.43;6.53;;;;;;;;;;4965694;28;20051;-90
2022/03/12 08:32:01;;;;;;;11.65;6.57;;;;;;;;;;4957108;28;20397;-89
2022/03/12 08:34:27;;;;;;;12.90;7.43;;;;;;;;;;4958383;28;20059;-89
2022/03/12 08:36:53;;;;;;;10.77;6.57;;;;;;;;;;4959233;28;20045;-88
2022/03/12 08:39:19;;;;;;;10.70;6.95;;;;;;;;;;4957581;29;20591;-90
2022/03/12 08:41:46;;;;;;;11.77;7.22;;;;;;;;;;4957046;29;20059;-92
2022/03/12 08:44:12;;;;;;;15.20;7.47;;;;;;;;;;4956940;29;20054;-89
2022/03/12 08:46:42;;;;;;;12.55;6.78;;;;;;;;;;4956680;29;20047;-89
2022/03/12 08:49:08;;;;;;;12.52;6.72;;;;;;;;;;4958123;28;20047;-91
2022/03/12 08:51:35;;;;;;;11.75;7.40;;;;;;;;;;4956551;29;20101;-89
2022/03/12 08:54:02;;;;;;;12.52;8.13;;;;;;;;;;4957027;29;20035;-89
2022/03/12 08:56:28;;;;;;;11.18;7.45;;;;;;;;;;4940323;29;20048;-90
2022/03/12 08:58:54;;;;;;;12.88;7.40;;;;;;;;;;4956954;29;20379;-90
2022/03/12 09:01:21;;;;;;;10.93;6.97;;;;;;;;;;4956482;29;20046;-89
2022/03/12 09:03:47;;;;;;;11.50;7.25;;;;;;;;;;4957911;28;20487;-91
2022/03/12 09:06:13;;;;;;;14.88;7.70;;;;;;;;;;4956284;29;20122;-90
2022/03/12 09:08:39;;;;;;;12.55;8.18;;;;;;;;;;4956355;29;20118;-89
2022/03/12 09:11:05;;;;;;;13.23;7.10;;;;;;;;;;4956467;29;20118;-89
2022/03/12 09:13:31;;;;;;;13.68;7.65;;;;;;;;;;4955966;29;20047;-90
2022/03/12 09:15:58;;;;;;;18.85;7.88;;;;;;;;;;4956858;29;20090;-91
2022/03/12 09:18:24;;;;;;;13.05;8.00;;;;;;;;;;4957622;28;20051;-89
2022/03/12 09:20:51;;;;;;;12.80;7.63;;;;;;;;;;4956296;29;20035;-91
2022/03/12 09:23:19;;;;;;;12.52;7.78;;;;;;;;;;4940272;29;20047;-90
2022/03/12 09:25:45;;;;;;;15.45;7.32;;;;;;;;;;4954842;29;20385;-89
2022/03/12 09:28:13;;;;;;;14.15;8.52;;;;;;;;;;4957452;28;20050;-89
2022/03/12 09:30:39;;;;;;;13.55;7.80;;;;;;;;;;4954959;28;20058;-90
2022/03/12 09:33:06;;;;;;;11.57;7.32;;;;;;;;;;4955979;29;20039;-89
2022/03/12 09:35:32;;;;;;;12.88;8.07;;;;;;;;;;4956028;29;20614;-89
2022/03/12 09:38:00;;;;;;;10.57;7.47;;;;;;;;;;4957260;28;20130;-87
2022/03/12 09:40:26;;;;;;;13.23;8.07;;;;;;;;;;4956495;29;20050;-89
2022/03/12 09:42:52;;;;;;;12.07;7.88;;;;;;;;;;4956046;29;20082;-88
2022/03/12 09:45:20;;;;;;;16.58;8.05;;;;;;;;;;4955510;29;20488;-88
2022/03/12 09:47:46;;;;;;;13.50;7.72;;;;;;;;;;4955649;29;20135;-90
2022/03/12 09:50:13;;;;;;;11.63;8.07;;;;;;;;;;4956756;28;20078;-88
2022/03/12 09:52:40;;;;;;;13.98;8.45;;;;;;;;;;4956155;29;20071;-89
2022/03/12 09:55:06;;;;;;;12.98;7.30;;;;;;;;;;4939632;29;20059;-91
2022/03/12 09:57:33;;;;;;;12.32;7.50;;;;;;;;;;4955528;29;20122;-89
2022/03/12 09:59:58;;;;;;;11.85;7.68;;;;;;;;;;4939595;29;20047;-88
2022/03/12 10:02:24;;;;;;;11.88;7.97;;;;;;;;;;4955508;29;20129;-89
2022/03/12 10:04:50;;;;;;;12.23;8.20;;;;;;;;;;4956699;28;20047;-89
2022/03/12 10:07:17;;;;;;;13.10;8.13;;;;;;;;;;4955193;29;20047;-88
2022/03/12 10:09:43;;;;;;;15.38;8.52;;;;;;;;;;4955368;29;20043;-87
2022/03/12 10:12:09;;;;;;;13.68;7.55;;;;;;;;;;4955160;29;20058;-87
2022/03/12 10:14:35;;;;;;;13.43;8.35;;;;;;;;;;4955350;29;20082;-88
2022/03/12 10:17:02;;;;;;;11.10;8.07;;;;;;;;;;4955139;29;20066;-87
2022/03/12 10:19:30;;;;;;;12.68;8.30;;;;;;;;;;4955233;29;20439;-88
2022/03/12 10:21:56;;;;;;;13.05;8.02;;;;;;;;;;4954993;29;20059;-87
2022/03/12 10:24:24;;;;;;;16.15;8.90;;;;;;;;;;4955054;29;20047;-87
2022/03/12 10:26:50;;;;;;;12.35;8.40;;;;;;;;;;4954743;29;20047;-88
2022/03/12 10:29:16;;;;;;;15.55;8.77;;;;;;;;;;4956163;28;20082;-88
2022/03/12 10:31:43;;;;;;;11.77;8.02;;;;;;;;;;4954870;29;20043;-88
2022/03/12 10:34:23;;;;;;;13.43;8.55;;;;;;;;;;4956064;28;20471;-88
2022/03/12 10:36:53;;;;;;;16.00;8.15;;;;;;;;;;4956078;28;20047;-88
2022/03/12 10:39:32;;;;;;;14.77;8.90;;;;;;;;;;4954795;29;20044;-88
2022/03/12 10:42:04;;;;;;;12.02;8.30;;;;;;;;;;4954488;28;20039;-88
2022/03/12 10:44:34;;;;;;;13.90;8.35;;;;;;;;;;4956075;28;20043;-88
2022/03/12 10:47:00;;;;;;;13.85;8.30;;;;;;;;;;4954534;29;20058;-89
2022/03/12 10:49:26;;;;;;;12.63;8.15;;;;;;;;;;4956105;28;20050;-88
2022/03/12 10:51:57;;;;;;;12.10;8.23;;;;;;;;;;4955599;28;20052;-88
2022/03/12 10:54:23;;;;;;;15.38;8.93;;;;;;;;;;4954637;29;20085;-89
2022/03/12 10:56:54;;;;;;;13.90;8.48;;;;;;;;;;4954471;29;20078;-88
2022/03/12 10:59:24;;;;;;;12.18;8.38;;;;;;;;;;4955848;28;20051;-95
2022/03/12 11:01:55;;;;;;;14.07;8.32;;;;;;;;;;4954217;29;20392;-88
2022/03/12 11:04:26;;;;;;;14.45;8.98;;;;;;;;;;4954250;29;20054;-88
2022/03/12 11:06:53;;;;;;;14.48;8.52;;;;;;;;;;4954245;29;20079;-89
2022/03/12 11:09:33;;;;;;;14.35;9.02;;;;;;;;;;4954119;29;20081;-87
2022/03/12 11:12:00;;;;;;;13.60;8.77;;;;;;;;;;4938497;29;20047;-88
2022/03/12 11:14:26;;;;;;;14.20;8.75;;;;;;;;;;4954074;29;20051;-87
2022/03/12 11:16:53;;;;;;;15.13;9.40;;;;;;;;;;4953887;29;20554;-87
2022/03/12 11:19:37;;;;;;;13.40;8.93;;;;;;;;;;4955557;28;20047;-87
2022/03/12 11:22:09;;;;;;;12.73;9.00;;;;;;;;;;4955532;28;20054;-89
2022/03/12 11:24:44;;;;;;;13.57;9.32;;;;;;;;;;4954221;29;20047;-88
2022/03/12 11:27:12;;;;;;;12.65;8.85;;;;;;;;;;4953782;29;20070;-89
2022/03/12 11:29:39;;;;;;;12.82;9.50;;;;;;;;;;4953896;29;20051;-88
2022/03/12 11:32:09;;;;;;;13.48;9.15;;;;;;;;;;4953624;29;20084;-90
2022/03/12 11:34:43;;;;;;;14.10;9.27;;;;;;;;;;4954137;29;20059;-90
2022/03/12 11:37:17;;;;;;;13.40;9.57;;;;;;;;;;4953635;29;20051;-89
2022/03/12 11:39:49;;;;;;;16.52;9.73;;;;;;;;;;4954141;29;20380;-88
2022/03/12 11:42:23;;;;;;;16.73;9.82;;;;;;;;;;4953360;29;20046;-89
2022/03/12 11:44:50;;;;;;;14.10;9.73;;;;;;;;;;4954906;28;20440;-88
2022/03/12 11:47:17;;;;;;;18.42;9.63;;;;;;;;;;4954283;28;20415;-88
2022/03/12 11:49:43;;;;;;;15.73;9.77;;;;;;;;;;4974301;28;20122;-89
2022/03/12 11:52:10;;;;;;;16.05;9.25;;;;;;;;;;4972603;28;20390;-87
2022/03/12 11:54:39;;;;;;;12.32;8.57;;;;;;;;;;4972437;28;20046;-89
2022/03/12 11:57:06;;;;;;;14.30;8.35;;;;;;;;;;4972484;28;20538;-89
2022/03/12 11:59:32;;;;;;;15.30;9.32;;;;;;;;;;4973055;28;20088;-88
2022/03/12 12:02:05;;;;;;;13.70;8.85;;;;;;;;;;4973770;28;20134;-87
2022/03/12 12:04:32;;;;;;;14.45;9.25;;;;;;;;;;4973922;28;20130;-89
2022/03/12 12:06:59;;;;;;;14.43;8.85;;;;;;;;;;4972638;28;20045;-87
2022/03/12 12:09:25;;;;;;;14.65;8.95;;;;;;;;;;4973014;28;20086;-87
2022/03/12 12:11:53;;;;;;;16.52;9.93;;;;;;;;;;4972487;28;20074;-87
2022/03/12 12:14:19;;;;;;;13.65;8.00;;;;;;;;;;4972659;28;20053;-89
2022/03/12 12:16:46;;;;;;;13.10;8.88;;;;;;;;;;4972782;28;20053;-89
2022/03/12 12:19:12;;;;;;;13.68;8.68;;;;;;;;;;4972926;28;20391;-89
2022/03/12 12:21:38;;;;;;;11.85;8.00;;;;;;;;;;4974016;28;20043;-89
2022/03/12 12:24:24;;;;;;;16.00;8.98;;;;;;;;;;4972479;28;20038;-88
2022/03/12 12:27:01;;;;;;;15.82;8.90;;;;;;;;;;4972362;28;20114;-89
2022/03/12 12:29:43;;;;;;;14.48;9.15;;;;;;;;;;4972572;28;20050;-89
2022/03/12 12:32:10;;;;;;;12.75;8.25;;;;;;;;;;4973622;28;20086;-89
2022/03/12 12:34:37;;;;;;;12.18;8.88;;;;;;;;;;4973697;28;20043;-89
2022/03/12 12:37:03;;;;;;;15.38;8.85;;;;;;;;;;4972101;28;20126;-89
2022/03/12 12:39:29;;;;;;;12.95;8.55;;;;;;;;;;4972738;28;20450;-88
2022/03/12 12:41:58;;;;;;;13.25;7.18;;;;;;;;;;4971551;28;20138;-89
2022/03/12 12:44:41;;;;;;;11.90;7.70;;;;;;;;;;4972352;28;20075;-88
2022/03/12 12:47:08;;;;;;;10.85;6.85;;;;;;;;;;4971954;28;20043;-88
2022/03/12 12:49:43;;;;;;;15.13;7.40;;;;;;;;;;4965596;28;20038;-89
2022/03/12 12:52:10;;;;;;;10.70;7.03;;;;;;;;;;4969831;28;20042;-88
2022/03/12 12:54:57;;;;;;;13.65;7.00;;;;;;;;;;4964431;28;20447;-89
2022/03/12 12:57:39;;;;;;;10.90;7.50;;;;;;;;;;4953077;29;20553;-88
2022/03/12 13:00:20;;;;;;;10.68;7.00;;;;;;;;;;4952931;29;20055;-89
2022/03/12 13:02:49;;;;;;;11.57;7.25;;;;;;;;;;4952837;29;20039;-87
2022/03/12 13:05:15;;;;;;;11.43;6.82;;;;;;;;;;4955438;28;20495;-89
2022/03/12 13:07:59;;;;;;;12.00;7.10;;;;;;;;;;4956799;28;20035;-88
2022/03/12 13:10:26;;;;;;;16.27;6.95;;;;;;;;;;4976005;28;20035;-90
2022/03/12 13:12:52;;;;;;;13.82;6.88;;;;;;;;;;4975506;28;20070;-88
2022/03/12 13:15:22;;;;;;;13.93;7.05;;;;;;;;;;4975824;28;20057;-89
2022/03/12 13:17:48;;;;;;;12.02;6.93;;;;;;;;;;4976622;28;20057;-88
2022/03/12 13:20:29;;;;;;;11.77;6.45;;;;;;;;;;4975807;28;20059;-87
2022/03/12 13:22:58;;;;;;;10.32;6.10;;;;;;;;;;4975637;28;20057;-89
2022/03/12 13:25:24;;;;;;;11.75;7.10;;;;;;;;;;4975672;28;20407;-89
2022/03/12 13:28:00;;;;;;;14.05;7.60;;;;;;;;;;4975160;28;20078;-89
2022/03/12 13:30:26;;;;;;;11.80;7.13;;;;;;;;;;4973800;28;20050;-90
2022/03/12 13:32:54;;;;;;;11.05;7.05;;;;;;;;;;4968378;28;20511;-90
2022/03/12 13:35:21;;;;;;;13.73;6.95;;;;;;;;;;4964609;28;20058;-88
2022/03/12 13:37:48;;;;;;;11.15;7.53;;;;;;;;;;4976365;28;20047;-89
2022/03/12 13:40:17;;;;;;;11.77;7.03;;;;;;;;;;4975500;28;20074;-90
2022/03/12 13:42:47;;;;;;;11.00;7.10;;;;;;;;;;4976101;28;20150;-87
2022/03/12 13:45:14;;;;;;;12.05;7.30;;;;;;;;;;4975398;28;20046;-90
2022/03/12 13:47:40;;;;;;;9.55;6.05;;;;;;;;;;4974968;28;20053;-89
2022/03/12 13:50:07;;;;;;;17.73;10.60;;;;;;;;;;4967552;28;20038;-89
2022/03/12 13:52:34;;;;;;;17.40;9.98;;;;;;;;;;4976249;28;20038;-90
2022/03/12 13:55:00;;;;;;;13.77;6.88;;;;;;;;;;4974753;28;20055;-90
2022/03/12 13:57:32;;;;;;;10.75;6.53;;;;;;;;;;4975193;28;20110;-88
2022/03/12 14:00:14;;;;;;;11.82;6.72;;;;;;;;;;4974708;28;20043;-89
2022/03/12 14:02:47;;;;;;;11.65;6.95;;;;;;;;;;4974822;28;20039;-91
2022/03/12 14:05:20;;;;;;;11.27;6.72;;;;;;;;;;4974922;28;20421;-89
2022/03/12 14:07:46;;;;;;;11.95;7.55;;;;;;;;;;4974827;28;20062;-90
2022/03/12 14:10:12;;;;;;;15.05;8.20;;;;;;;;;;4974650;28;20042;-90
2022/03/12 14:12:38;;;;;;;12.20;6.55;;;;;;;;;;4975809;28;20118;-89
2022/03/12 14:15:05;;;;;;;11.23;6.85;;;;;;;;;;4980164;28;20180;-89
2022/03/12 14:17:32;;;;;;;11.23;6.55;;;;;;;;;;4993478;28;20546;-91
2022/03/12 14:20:04;;;;;;;16.23;7.72;;;;;;;;;;4994058;28;20046;-90
2022/03/12 14:22:30;;;;;;;10.70;6.53;;;;;;;;;;4993937;28;20409;-89
2022/03/12 14:24:58;;;;;;;11.27;5.25;;;;;;;;;;4973314;28;20057;-89
2022/03/12 14:27:29;;;;;;;28.45;6.25;;;;;;;;;;4974437;28;20406;-90
2022/03/12 14:29:57;;;;;;;12.07;5.85;;;;;;;;;;4974272;28;20521;-90
2022/03/12 14:32:23;;;;;;;10.70;5.32;;;;;;;;;;4975949;28;20169;-89
2022/03/12 14:34:49;;;;;;;7.53;4.40;;;;;;;;;;4974066;28;20394;-90